Time;durP1;ratioP1;P1;durP2;ratioP2;P2;SDS_P1;SDS_P2;PMS_P1;PMS_P2;Temp;Humidity;BMP_temperature;BMP_pressure;BME280_temperature;BME280_humidity;BME280_pressure;Samples;Min_cycle;Max_cycle;Signal;HPM_P1;HPM_P2
2022/08/23 00:01:27;;;;;;;11.90;6.85;;;15.60;99.90;;;;;;5064854;28;20041;-48
2022/08/23 00:03:55;;;;;;;12.88;6.45;;;15.80;99.90;;;;;;5069744;28;20083;-46
2022/08/23 00:06:22;;;;;;;10.68;5.70;;;15.70;99.90;;;;;;5068731;28;20044;-46
2022/08/23 00:08:50;;;;;;;10.60;6.60;;;15.60;99.90;;;;;;5066337;28;20308;-50
2022/08/23 00:11:41;;;;;;;13.25;7.30;;;15.40;99.90;;;;;;5067531;28;20044;-49
2022/08/23 00:14:14;;;;;;;12.23;6.67;;;15.50;99.90;;;;;;5054933;28;20063;-47
2022/08/23 00:16:41;;;;;;;12.60;6.00;;;15.50;99.90;;;;;;5065994;28;20048;-47
2022/08/23 00:19:09;;;;;;;10.20;5.55;;;15.60;99.90;;;;;;5059149;28;20729;-46
2022/08/23 00:21:37;;;;;;;8.88;5.50;;;15.50;99.90;;;;;;5063516;28;20036;-48
2022/08/23 00:24:05;;;;;;;11.90;6.13;;;15.30;99.90;;;;;;5042312;28;20122;-47
2022/08/23 00:27:00;;;;;;;11.98;6.22;;;15.40;99.90;;;;;;5069772;28;20108;-49
2022/08/23 00:29:34;;;;;;;12.05;6.22;;;15.30;99.90;;;;;;5064866;28;20063;-47
2022/08/23 00:32:00;;;;;;;10.85;6.40;;;15.20;99.90;;;;;;5068185;28;20123;-49
2022/08/23 00:34:27;;;;;;;11.50;7.00;;;15.30;99.90;;;;;;5068586;28;20135;-47
2022/08/23 00:36:53;;;;;;;10.93;6.75;;;15.20;99.90;;;;;;5067812;28;20385;-49
2022/08/23 00:39:19;;;;;;;12.02;6.25;;;15.20;99.90;;;;;;5066582;28;20121;-46
2022/08/23 00:41:47;;;;;;;12.43;6.20;;;15.30;99.90;;;;;;5073845;28;20036;-50
2022/08/23 00:49:58;;;;;;;8.13;5.78;;;15.20;99.90;;;;;;5070784;28;20051;-48
2022/08/23 00:52:36;;;;;;;14.52;8.05;;;15.40;99.90;;;;;;5064193;28;20055;-48
2022/08/23 00:55:02;;;;;;;11.18;5.68;;;15.10;99.90;;;;;;5064658;28;20044;-51
2022/08/23 00:57:29;;;;;;;7.82;5.00;;;15.10;99.90;;;;;;5068046;28;20427;-46
2022/08/23 00:59:55;;;;;;;6.25;4.38;;;14.90;99.90;;;;;;5067110;28;20051;-52
2022/08/23 01:02:21;;;;;;;11.02;5.53;;;14.90;99.90;;;;;;5067444;28;20045;-49
2022/08/23 01:04:58;;;;;;;10.27;5.55;;;14.90;99.90;;;;;;5064598;28;20043;-49
2022/08/23 01:07:45;;;;;;;12.93;6.43;;;14.60;99.90;;;;;;5069475;28;20469;-50
2022/08/23 01:10:34;;;;;;;7.20;5.05;;;12.70;99.90;;;;;;5068630;28;20036;-47
2022/08/23 01:13:08;;;;;;;11.20;4.80;;;14.70;99.90;;;;;;5070300;28;20033;-47
2022/08/23 01:15:44;;;;;;;13.68;4.47;;;14.50;99.90;;;;;;5065967;28;20056;-47
2022/08/23 01:18:14;;;;;;;5.85;3.67;;;14.70;99.90;;;;;;5063761;28;20052;-49
2022/08/23 01:20:55;;;;;;;5.15;2.80;;;14.40;99.90;;;;;;5062025;28;20041;-46
2022/08/23 01:23:42;;;;;;;6.80;3.72;;;14.30;99.90;;;;;;5065461;28;20046;-50
2022/08/23 01:26:09;;;;;;;8.20;3.97;;;14.20;99.90;;;;;;5065918;28;20040;-47
2022/08/23 01:28:35;;;;;;;8.65;4.57;;;14.20;99.90;;;;;;5065547;28;20467;-47
2022/08/23 01:31:02;;;;;;;5.22;4.22;;;16.20;99.90;;;;;;5066918;28;20080;-47
2022/08/23 01:33:28;;;;;;;7.18;4.35;;;14.30;99.90;;;;;;5066266;28;20055;-48
2022/08/23 01:35:56;;;;;;;7.00;4.10;;;14.10;99.90;;;;;;5067949;28;20394;-46
2022/08/23 01:38:23;;;;;;;7.53;4.47;;;14.20;99.90;;;;;;5069566;28;20579;-48
2022/08/23 01:40:49;;;;;;;8.77;4.68;;;15.80;99.90;;;;;;5065204;28;20526;-47
2022/08/23 01:43:18;;;;;;;8.77;6.75;;;14.10;99.90;;;;;;5068083;28;20051;-48
2022/08/23 01:45:45;;;;;;;8.27;6.22;;;14.00;99.90;;;;;;5066884;28;20064;-49
2022/08/23 01:48:11;;;;;;;7.03;5.63;;;14.20;99.90;;;;;;5070479;28;20040;-47
2022/08/23 01:50:37;;;;;;;11.30;5.75;;;14.00;99.90;;;;;;5066319;28;20056;-47
2022/08/23 01:53:03;;;;;;;10.93;5.15;;;13.90;99.90;;;;;;5061860;28;20040;-47
2022/08/23 01:55:29;;;;;;;6.35;4.15;;;14.10;99.90;;;;;;5067823;28;20047;-47
2022/08/23 01:57:59;;;;;;;7.35;4.05;;;13.90;99.90;;;;;;5067732;28;20032;-49
2022/08/23 02:00:29;;;;;;;6.70;3.15;;;14.90;99.90;;;;;;5066531;28;20040;-47
2022/08/23 02:02:57;;;;;;;4.65;3.25;;;13.80;99.90;;;;;;5067483;28;20082;-48
2022/08/23 02:05:24;;;;;;;6.85;3.42;;;13.70;99.90;;;;;;5065901;28;20054;-47
2022/08/23 02:07:50;;;;;;;5.50;3.30;;;13.70;99.90;;;;;;5065948;28;20655;-49
2022/08/23 02:10:17;;;;;;;8.18;3.50;;;13.70;99.90;;;;;;5072532;28;20048;-46
2022/08/23 02:12:43;;;;;;;5.88;3.88;;;13.60;99.90;;;;;;5065280;28;20109;-47
2022/08/23 02:15:09;;;;;;;6.80;3.03;;;13.60;99.90;;;;;;5066881;28;20484;-47
2022/08/23 02:17:35;;;;;;;4.95;3.10;;;13.60;99.90;;;;;;5064329;28;20593;-47
2022/08/23 02:20:02;;;;;;;5.70;2.63;;;13.50;99.90;;;;;;5066238;28;20628;-47
2022/08/23 02:22:28;;;;;;;6.60;2.88;;;13.60;99.90;;;;;;5063123;28;20114;-46
2022/08/23 02:24:54;;;;;;;5.25;2.90;;;13.70;99.90;;;;;;5065924;28;20044;-47
2022/08/23 02:27:20;;;;;;;5.85;3.00;;;13.50;99.90;;;;;;5066432;28;20067;-48
2022/08/23 02:29:46;;;;;;;5.80;3.22;;;13.60;99.90;;;;;;5067439;28;20576;-47
2022/08/23 02:32:15;;;;;;;4.70;2.70;;;13.50;99.90;;;;;;5065121;28;20118;-47
2022/08/23 02:34:41;;;;;;;4.90;3.42;;;13.40;99.90;;;;;;5046802;28;20040;-48
2022/08/23 02:37:09;;;;;;;6.15;3.88;;;13.50;99.90;;;;;;5066961;28;20032;-49
2022/08/23 02:39:35;;;;;;;5.88;3.70;;;13.50;99.90;;;;;;5064874;28;20059;-49
2022/08/23 02:42:02;;;;;;;6.95;3.20;;;13.40;99.90;;;;;;5067674;28;20052;-50
2022/08/23 02:44:28;;;;;;;5.93;3.35;;;15.50;99.90;;;;;;5062882;28;20051;-46
2022/08/23 02:46:54;;;;;;;5.45;3.05;;;13.30;99.90;;;;;;5068480;28;20040;-47
2022/08/23 02:49:20;;;;;;;4.50;2.95;;;13.30;99.90;;;;;;5067356;28;20036;-47
2022/08/23 02:51:47;;;;;;;6.10;2.90;;;13.90;99.90;;;;;;5065236;28;20102;-49
2022/08/23 02:54:13;;;;;;;5.68;3.00;;;13.20;99.90;;;;;;5064071;28;20094;-46
2022/08/23 02:56:39;;;;;;;7.32;3.35;;;15.50;99.90;;;;;;5062312;28;20040;-47
2022/08/23 02:59:06;;;;;;;5.80;2.97;;;13.30;99.90;;;;;;5047529;28;20152;-46
2022/08/23 03:01:35;;;;;;;5.13;3.05;;;13.10;99.90;;;;;;5063011;28;20040;-52
2022/08/23 03:04:03;;;;;;;6.32;4.30;;;14.30;99.90;;;;;;5064843;28;20055;-47
2022/08/23 03:06:28;;;;;;;5.25;3.13;;;13.30;99.90;;;;;;5061058;28;20054;-49
2022/08/23 03:08:55;;;;;;;7.43;2.80;;;13.30;99.90;;;;;;5047462;28;20492;-50
2022/08/23 03:11:22;;;;;;;6.47;2.53;;;13.00;99.90;;;;;;5064897;28;20658;-46
2022/08/23 03:13:48;;;;;;;4.53;2.58;;;13.10;99.90;;;;;;5067414;28;20059;-48
2022/08/23 03:16:15;;;;;;;5.32;2.40;;;13.20;99.90;;;;;;5065864;28;20114;-49
2022/08/23 03:18:41;;;;;;;5.88;2.70;;;13.00;99.90;;;;;;5064100;28;20051;-47
2022/08/23 03:21:10;;;;;;;4.47;2.58;;;14.00;99.90;;;;;;5065249;28;20048;-46
2022/08/23 03:23:38;;;;;;;4.20;2.50;;;13.00;99.90;;;;;;5062065;28;20132;-47
2022/08/23 03:26:05;;;;;;;5.03;2.70;;;13.00;99.90;;;;;;5065647;28;20098;-50
2022/08/23 03:28:34;;;;;;;4.50;2.05;;;12.80;99.90;;;;;;5063355;28;20720;-49
2022/08/23 03:31:00;;;;;;;4.22;1.83;;;12.90;99.90;;;;;;5062005;28;20048;-46
2022/08/23 03:33:25;;;;;;;3.50;2.00;;;13.60;99.90;;;;;;5066281;28;20142;-51
2022/08/23 03:35:51;;;;;;;5.68;2.40;;;12.80;99.90;;;;;;5063424;28;20052;-47
2022/08/23 03:38:18;;;;;;;4.03;2.50;;;12.80;99.90;;;;;;5064793;28;20044;-51
2022/08/23 03:40:44;;;;;;;6.57;3.22;;;13.70;99.90;;;;;;5062678;28;20040;-47
2022/08/23 03:43:10;;;;;;;4.85;2.50;;;13.00;99.90;;;;;;5069405;28;20051;-48
2022/08/23 03:45:37;;;;;;;6.30;2.30;;;12.80;99.90;;;;;;5033905;28;20037;-46
2022/08/23 03:48:03;;;;;;;7.03;2.67;;;12.90;99.90;;;;;;5063513;28;20048;-50
2022/08/23 03:50:29;;;;;;;7.63;2.53;;;12.90;99.90;;;;;;5059765;28;20051;-49
2022/08/23 03:52:55;;;;;;;6.68;3.03;;;13.60;99.90;;;;;;5063552;28;20040;-47
2022/08/23 03:55:21;;;;;;;5.25;2.75;;;13.10;99.90;;;;;;5063517;28;20129;-46
2022/08/23 03:57:47;;;;;;;5.90;3.40;;;14.60;99.90;;;;;;5065604;28;20044;-51
2022/08/23 04:00:14;;;;;;;5.47;3.30;;;12.90;99.90;;;;;;5064576;28;20063;-48
2022/08/23 04:02:40;;;;;;;4.78;1.90;;;12.60;99.90;;;;;;5065940;28;20125;-49
2022/08/23 04:05:09;;;;;;;3.78;1.95;;;12.90;99.90;;;;;;5064417;28;20045;-49
2022/08/23 04:07:37;;;;;;;4.40;1.70;;;12.70;99.90;;;;;;5061832;28;20048;-48
2022/08/23 04:10:05;;;;;;;6.13;2.38;;;14.70;99.90;;;;;;5066837;28;20052;-48
2022/08/23 04:12:31;;;;;;;3.17;1.92;;;12.70;99.90;;;;;;5067622;28;20037;-48
2022/08/23 04:14:57;;;;;;;6.10;3.15;;;12.60;99.90;;;;;;5066756;28;20051;-48
2022/08/23 04:17:23;;;;;;;5.00;2.40;;;14.60;99.90;;;;;;5067323;28;20048;-48
2022/08/23 04:19:49;;;;;;;5.60;2.58;;;12.70;99.90;;;;;;5065261;28;20421;-47
2022/08/23 04:22:17;;;;;;;6.32;3.00;;;12.60;99.90;;;;;;5070757;28;20044;-49
2022/08/23 04:24:44;;;;;;;8.68;3.72;;;11.50;99.90;;;;;;5064689;28;20044;-48
2022/08/23 04:27:11;;;;;;;7.47;4.10;;;12.50;99.90;;;;;;5064967;28;20106;-49
2022/08/23 04:29:38;;;;;;;6.13;4.32;;;12.60;99.90;;;;;;5067056;28;20040;-48
2022/08/23 04:32:06;;;;;;;5.28;3.88;;;12.60;99.90;;;;;;5047229;28;20569;-52
2022/08/23 04:34:33;;;;;;;7.43;4.50;;;12.80;99.90;;;;;;5064161;28;20058;-50
2022/08/23 04:36:59;;;;;;;7.72;4.45;;;12.50;99.90;;;;;;5064631;28;20051;-46
2022/08/23 04:39:25;;;;;;;7.22;4.03;;;12.60;99.90;;;;;;5065027;28;20050;-48
2022/08/23 04:44:35;;;;;;;6.78;4.95;;;12.60;99.90;;;;;;5066135;28;20040;-47
2022/08/23 04:47:01;;;;;;;8.48;5.43;;;12.80;99.90;;;;;;5067407;28;20040;-48
2022/08/23 04:49:27;;;;;;;8.73;5.22;;;14.30;99.90;;;;;;5066173;28;20638;-49
2022/08/23 04:51:53;;;;;;;6.30;3.70;;;14.00;99.90;;;;;;5068935;28;20035;-49
2022/08/23 04:54:19;;;;;;;5.60;3.45;;;12.70;99.90;;;;;;5066049;28;20514;-47
2022/08/23 04:56:45;;;;;;;14.35;5.47;;;12.90;99.90;;;;;;5050611;28;20040;-48
2022/08/23 04:59:10;;;;;;;6.68;4.20;;;12.80;99.90;;;;;;5046146;28;20056;-48
2022/08/23 05:01:37;;;;;;;12.60;7.40;;;13.00;99.90;;;;;;5067285;28;20048;-47
2022/08/23 05:04:03;;;;;;;9.32;5.80;;;13.00;99.90;;;;;;5066766;28;20044;-47
2022/08/23 05:06:30;;;;;;;21.67;8.40;;;12.80;99.90;;;;;;5067369;28;20160;-49
2022/08/23 05:08:56;;;;;;;15.32;5.93;;;13.30;99.90;;;;;;5046693;28;20388;-47
2022/08/23 05:11:22;;;;;;;9.60;5.88;;;12.80;99.90;;;;;;5065019;28;20051;-46
2022/08/23 05:13:48;;;;;;;11.18;5.93;;;12.90;99.90;;;;;;5047184;28;20040;-49
2022/08/23 05:16:15;;;;;;;7.72;5.18;;;13.10;99.90;;;;;;5065292;28;20044;-49
2022/08/23 05:18:41;;;;;;;6.95;4.60;;;15.10;99.90;;;;;;5065033;28;20062;-48
2022/08/23 05:21:06;;;;;;;8.90;5.50;;;13.00;99.90;;;;;;5067162;28;20500;-46
2022/08/23 05:23:32;;;;;;;13.00;8.10;;;13.30;99.90;;;;;;5061845;28;20036;-46
2022/08/23 05:25:59;;;;;;;13.95;8.45;;;15.60;99.90;;;;;;5047792;28;20492;-49
2022/08/23 05:28:28;;;;;;;13.05;7.28;;;13.50;99.90;;;;;;5070780;28;20032;-46
2022/08/23 05:31:03;;;;;;;15.90;8.50;;;13.50;99.90;;;;;;5064304;28;20408;-48
2022/08/23 05:33:31;;;;;;;26.73;17.00;;;13.60;99.90;;;;;;5061350;28;20037;-50
2022/08/23 05:35:58;;;;;;;14.60;11.48;;;13.80;99.90;;;;;;5060874;28;20055;-47
2022/08/23 05:38:25;;;;;;;10.88;9.38;;;13.90;99.90;;;;;;5071438;28;20045;-51
2022/08/23 05:40:53;;;;;;;19.27;10.95;;;14.10;99.90;;;;;;5056530;28;20053;-47
2022/08/23 05:43:19;;;;;;;14.02;11.25;;;14.30;99.90;;;;;;5063315;28;20056;-50
2022/08/23 05:45:45;;;;;;;12.75;11.07;;;14.40;99.90;;;;;;5065696;28;20040;-51
2022/08/23 05:48:12;;;;;;;16.80;12.48;;;14.50;99.90;;;;;;5064140;28;20514;-48
2022/08/23 05:50:38;;;;;;;15.57;11.40;;;14.80;99.90;;;;;;5064546;28;20055;-48
2022/08/23 05:53:05;;;;;;;16.50;12.52;;;15.00;99.90;;;;;;5063827;28;20050;-52
2022/08/23 05:55:31;;;;;;;22.42;14.55;;;15.20;99.90;;;;;;5062687;28;20042;-47
2022/08/23 05:57:57;;;;;;;18.15;13.18;;;15.50;99.90;;;;;;5043260;28;20045;-48
2022/08/23 06:00:22;;;;;;;16.35;13.35;;;15.40;99.90;;;;;;5062220;28;20055;-51
2022/08/23 06:02:48;;;;;;;20.17;17.88;;;15.70;99.90;;;;;;5042549;28;20041;-48
2022/08/23 06:05:15;;;;;;;20.50;16.50;;;15.60;99.90;;;;;;5060764;28;20059;-49
2022/08/23 06:07:41;;;;;;;21.38;18.48;;;15.90;99.90;;;;;;5059582;28;20036;-53
2022/08/23 06:10:07;;;;;;;21.60;16.67;;;16.20;99.90;;;;;;5065676;28;20032;-50
2022/08/23 06:12:33;;;;;;;21.20;17.20;;;17.20;99.90;;;;;;5061634;28;20439;-49
2022/08/23 06:14:59;;;;;;;18.73;16.13;;;17.40;99.90;;;;;;5041863;28;20048;-47
2022/08/23 06:17:25;;;;;;;15.43;13.82;;;17.70;99.90;;;;;;5065522;28;20074;-48
2022/08/23 06:19:51;;;;;;;17.85;13.50;;;18.30;99.90;;;;;;5058204;28;20074;-52
2022/08/23 06:22:17;;;;;;;18.00;13.65;;;18.80;99.90;;;;;;5062194;28;20436;-53
2022/08/23 06:24:43;;;;;;;16.60;13.25;;;19.20;99.90;;;;;;5060374;28;20707;-49
2022/08/23 06:27:10;;;;;;;19.85;11.90;;;19.60;99.90;;;;;;5059921;28;20068;-53
2022/08/23 06:29:37;;;;;;;14.18;10.43;;;20.30;99.90;;;;;;5058883;28;20550;-50
2022/08/23 06:32:04;;;;;;;11.02;9.85;;;20.90;99.90;;;;;;5058266;28;20040;-50
2022/08/23 06:34:32;;;;;;;14.93;9.80;;;21.60;99.90;;;;;;5067211;28;20710;-50
2022/08/23 06:37:04;;;;;;;10.98;8.63;;;22.00;99.90;;;;;;5065688;28;20374;-50
2022/08/23 06:39:31;;;;;;;13.25;9.20;;;22.70;99.90;;;;;;5063928;28;20051;-49
2022/08/23 06:42:00;;;;;;;13.38;9.27;;;22.90;99.90;;;;;;5064792;28;20118;-50
2022/08/23 06:44:27;;;;;;;12.02;8.80;;;22.90;99.90;;;;;;5062796;28;20048;-48
2022/08/23 06:46:55;;;;;;;10.00;7.82;;;23.10;99.90;;;;;;5060635;28;20094;-49
2022/08/23 06:49:21;;;;;;;11.27;7.72;;;23.50;99.90;;;;;;5061866;28;20694;-50
2022/08/23 06:51:52;;;;;;;13.15;8.30;;;24.20;99.90;;;;;;5060180;28;20075;-53
2022/08/23 06:54:20;;;;;;;9.73;6.32;;;24.60;99.90;;;;;;5064440;28;20111;-50
2022/08/23 06:56:48;;;;;;;10.18;6.90;;;25.80;99.90;;;;;;5064036;28;20044;-52
2022/08/23 06:59:14;;;;;;;13.23;6.90;;;26.30;99.90;;;;;;5064008;28;20064;-47
2022/08/23 07:01:48;;;;;;;10.73;6.38;;;27.00;99.90;;;;;;5059127;28;20047;-50
2022/08/23 07:04:17;;;;;;;9.05;5.50;;;27.10;99.90;;;;;;5062123;28;20045;-53
2022/08/23 07:06:43;;;;;;;10.38;5.47;;;27.90;99.90;;;;;;5060659;28;20032;-51
2022/08/23 07:09:09;;;;;;;9.57;5.68;;;28.60;99.90;;;;;;5063360;28;20085;-50
2022/08/23 07:11:35;;;;;;;7.95;4.80;;;28.80;99.90;;;;;;5066554;28;20040;-52
2022/08/23 07:14:04;;;;;;;9.10;5.10;;;29.20;99.90;;;;;;5066147;28;20037;-52
2022/08/23 07:16:40;;;;;;;8.27;4.97;;;29.90;99.90;;;;;;5046793;28;20212;-53
2022/08/23 07:19:07;;;;;;;10.68;4.47;;;29.30;99.90;;;;;;5055234;28;20049;-54
2022/08/23 07:21:34;;;;;;;8.20;4.78;;;29.60;99.90;;;;;;5058718;28;20071;-53
2022/08/23 07:24:00;;;;;;;10.48;4.40;;;29.90;99.90;;;;;;5063523;28;20595;-56
2022/08/23 07:26:26;;;;;;;11.27;5.47;;;29.90;99.90;;;;;;5062500;28;20040;-56
2022/08/23 07:28:52;;;;;;;13.00;5.30;;;29.70;99.90;;;;;;5024020;28;20098;-56
2022/08/23 07:31:22;;;;;;;7.97;4.80;;;29.50;99.90;;;;;;5061650;28;20051;-56
2022/08/23 07:33:48;;;;;;;9.75;4.53;;;29.20;99.90;;;;;;5061123;28;20036;-56
2022/08/23 07:36:15;;;;;;;9.85;5.18;;;29.10;99.90;;;;;;5057899;28;20049;-55
2022/08/23 07:38:42;;;;;;;7.47;4.82;;;28.00;99.90;;;;;;5061925;28;20047;-55
2022/08/23 07:41:08;;;;;;;7.80;4.60;;;27.10;99.90;;;;;;5045575;28;20044;-54
2022/08/23 07:43:34;;;;;;;6.72;4.72;;;26.10;99.90;;;;;;5060516;28;20055;-55
2022/08/23 07:46:01;;;;;;;7.47;4.93;;;26.00;99.90;;;;;;5062994;28;20044;-55
2022/08/23 07:48:27;;;;;;;7.25;4.50;;;25.70;99.90;;;;;;5063786;28;20149;-54
2022/08/23 07:50:57;;;;;;;7.15;4.43;;;25.50;99.90;;;;;;5058283;28;20649;-53
2022/08/23 07:53:24;;;;;;;9.65;4.53;;;25.60;99.90;;;;;;5042650;28;20040;-55
2022/08/23 07:55:50;;;;;;;7.45;4.68;;;25.20;99.90;;;;;;5041823;28;20504;-54
2022/08/23 07:58:16;;;;;;;7.70;4.70;;;24.80;99.90;;;;;;5056248;28;20048;-54
2022/08/23 08:00:43;;;;;;;8.65;4.90;;;24.80;99.90;;;;;;5063481;28;20044;-55
2022/08/23 08:03:10;;;;;;;8.32;4.82;;;24.90;99.90;;;;;;5041096;28;20044;-54
2022/08/23 08:05:36;;;;;;;8.55;4.70;;;24.60;99.90;;;;;;5060448;28;20119;-55
2022/08/23 08:08:03;;;;;;;10.35;4.75;;;24.50;99.90;;;;;;5036049;28;20036;-54
2022/08/23 08:10:29;;;;;;;13.63;4.65;;;24.60;99.90;;;;;;5060528;28;20040;-54
2022/08/23 08:12:55;;;;;;;10.68;4.70;;;24.70;99.90;;;;;;5063274;28;20059;-55
2022/08/23 08:15:22;;;;;;;11.32;4.95;;;24.70;99.90;;;;;;5063119;28;20216;-53
2022/08/23 08:17:49;;;;;;;11.52;4.88;;;24.40;99.90;;;;;;5018867;28;20518;-54
2022/08/23 08:20:16;;;;;;;9.65;4.70;;;22.70;99.90;;;;;;5064389;28;20125;-55
2022/08/23 08:22:42;;;;;;;8.65;4.60;;;24.40;99.90;;;;;;5049578;28;20036;-54
2022/08/23 08:25:09;;;;;;;8.65;4.65;;;24.40;99.90;;;;;;5064850;28;20079;-55
2022/08/23 08:27:35;;;;;;;8.63;4.25;;;24.50;99.90;;;;;;5062088;28;20066;-54
2022/08/23 08:30:03;;;;;;;8.88;4.30;;;24.70;99.90;;;;;;5063179;28;20763;-54
2022/08/23 08:32:29;;;;;;;11.90;4.55;;;24.30;99.90;;;;;;5044289;28;20058;-54
2022/08/23 08:34:55;;;;;;;9.02;4.43;;;24.60;99.90;;;;;;5065192;28;20165;-55
2022/08/23 08:37:21;;;;;;;9.85;4.43;;;24.50;99.90;;;;;;5060134;28;20044;-55
2022/08/23 08:39:47;;;;;;;8.27;4.03;;;24.40;99.90;;;;;;5061432;28;20511;-54
2022/08/23 08:42:42;;;;;;;11.07;4.18;;;24.70;99.90;;;;;;5065791;28;20052;-53
2022/08/23 08:45:31;;;;;;;8.45;4.00;;;24.30;99.90;;;;;;5059684;28;20048;-55
2022/08/23 08:48:05;;;;;;;9.82;4.40;;;24.60;99.90;;;;;;5064814;28;20512;-55
2022/08/23 08:50:46;;;;;;;7.85;4.47;;;24.70;99.90;;;;;;5065676;28;20036;-56
2022/08/23 08:53:25;;;;;;;6.68;4.40;;;24.80;99.90;;;;;;5049095;28;20807;-56
2022/08/23 08:55:55;;;;;;;10.18;3.70;;;24.90;99.90;;;;;;5057077;28;20160;-56
2022/08/23 08:58:47;;;;;;;10.90;4.80;;;25.10;99.90;;;;;;5061369;28;20073;-55
2022/08/23 09:01:15;;;;;;;10.35;4.32;;;24.80;99.90;;;;;;5051942;28;20053;-55
2022/08/23 09:03:41;;;;;;;9.57;4.05;;;24.90;99.90;;;;;;5063428;28;20083;-55
2022/08/23 09:06:15;;;;;;;10.10;4.45;;;24.90;99.90;;;;;;5063740;28;20736;-56
2022/08/23 09:08:43;;;;;;;10.68;3.92;;;24.90;99.90;;;;;;5059490;28;20192;-55
2022/08/23 09:11:31;;;;;;;10.30;3.90;;;24.90;99.90;;;;;;5060556;28;20043;-55
2022/08/23 09:14:14;;;;;;;9.80;4.55;;;25.00;99.90;;;;;;5061078;28;22054;-55
2022/08/23 09:16:55;;;;;;;7.60;3.92;;;24.90;99.90;;;;;;5063859;28;20499;-55
2022/08/23 09:19:23;;;;;;;14.07;5.20;;;25.40;99.90;;;;;;5061384;28;20058;-56
2022/08/23 09:21:55;;;;;;;12.88;4.40;;;25.40;99.90;;;;;;5064060;28;20036;-55
2022/08/23 09:24:21;;;;;;;9.02;3.80;;;25.40;99.90;;;;;;5068235;28;20036;-55
2022/08/23 09:26:47;;;;;;;7.03;3.70;;;25.40;99.90;;;;;;5063391;28;20056;-55
2022/08/23 09:29:26;;;;;;;9.20;4.63;;;25.50;99.90;;;;;;5066319;28;20040;-55
2022/08/23 09:31:57;;;;;;;7.88;3.65;;;25.50;99.90;;;;;;5069203;28;20450;-55
2022/08/23 09:34:43;;;;;;;9.03;3.53;;;25.30;99.90;;;;;;5067671;28;20136;-55
2022/08/23 09:37:19;;;;;;;8.85;3.90;;;25.40;99.90;;;;;;5060696;28;20327;-55
2022/08/23 09:39:51;;;;;;;9.75;3.65;;;25.70;99.90;;;;;;5066642;28;20049;-55
2022/08/23 09:42:30;;;;;;;11.48;4.10;;;25.70;99.90;;;;;;5067571;28;20060;-56
2022/08/23 09:44:56;;;;;;;10.00;3.65;;;25.60;99.90;;;;;;5062543;28;20049;-55
2022/08/23 09:47:32;;;;;;;9.40;4.00;;;25.90;99.90;;;;;;5061645;28;20695;-55
2022/08/23 09:50:08;;;;;;;9.75;4.28;;;26.00;99.90;;;;;;5067603;28;20504;-55
2022/08/23 09:52:37;;;;;;;10.15;3.97;;;25.90;99.90;;;;;;5057488;28;20257;-55
2022/08/23 09:55:34;;;;;;;11.07;3.28;;;26.10;99.90;;;;;;5064017;28;21366;-55
2022/08/23 09:58:04;;;;;;;10.65;3.60;;;26.10;99.90;;;;;;5070612;28;20408;-55
2022/08/23 10:00:34;;;;;;;8.88;3.33;;;26.30;99.90;;;;;;5070523;28;20051;-54
2022/08/23 10:03:21;;;;;;;9.18;3.58;;;26.40;99.90;;;;;;5070337;28;20051;-55
2022/08/23 10:05:55;;;;;;;10.88;3.60;;;26.80;99.90;;;;;;5067706;28;20044;-54
2022/08/23 10:08:27;;;;;;;8.27;3.30;;;26.70;99.90;;;;;;5066636;28;20051;-55
2022/08/23 10:10:57;;;;;;;8.80;3.15;;;27.10;99.90;;;;;;5060638;28;20041;-54
2022/08/23 10:13:23;;;;;;;10.13;3.55;;;27.00;99.90;;;;;;5060326;28;20037;-54
2022/08/23 10:16:27;;;;;;;7.70;3.60;;;27.30;99.90;;;;;;5057966;28;20064;-55
2022/08/23 10:18:56;;;;;;;8.32;2.90;;;27.60;99.90;;;;;;5055563;28;20041;-55
2022/08/23 10:21:28;;;;;;;10.43;2.85;;;27.80;99.90;;;;;;5055168;28;20045;-55
2022/08/23 10:24:14;;;;;;;7.35;3.22;;;27.50;99.90;;;;;;5062674;28;20036;-54
2022/08/23 10:30:13;;;;;;;7.53;2.88;;;27.70;99.90;;;;;;5064999;28;20068;-55
2022/08/23 10:32:53;;;;;;;16.42;3.15;;;29.20;99.90;;;;;;5056546;28;20036;-52
2022/08/23 10:35:41;;;;;;;10.32;3.65;;;27.60;99.90;;;;;;5057674;28;20378;-55
2022/08/23 10:38:25;;;;;;;6.78;2.30;;;27.70;99.90;;;;;;5064397;28;20202;-54
2022/08/23 10:41:12;;;;;;;7.68;2.70;;;27.90;99.90;;;;;;5055642;28;20060;-55
2022/08/23 10:44:19;;;;;;;7.53;2.72;;;28.10;99.90;;;;;;5059444;28;20064;-55
2022/08/23 10:46:56;;;;;;;8.18;2.60;;;28.30;99.90;;;;;;4958755;28;20052;-55
2022/08/23 10:49:24;;;;;;;7.40;2.53;;;28.60;99.90;;;;;;5062565;28;20062;-55
2022/08/23 10:51:51;;;;;;;8.57;2.25;;;28.60;99.90;;;;;;5066653;28;20097;-55
2022/08/23 10:55:05;;;;;;;8.32;2.83;;;28.60;99.90;;;;;;5059081;28;20102;-55
2022/08/23 10:57:35;;;;;;;8.65;3.30;;;29.00;99.90;;;;;;4951438;28;20109;-53
2022/08/23 11:00:09;;;;;;;10.15;3.03;;;28.80;99.90;;;;;;4951594;28;20117;-55
2022/08/23 11:02:41;;;;;;;6.10;2.55;;;28.70;99.90;;;;;;5017922;28;20111;-54
2022/08/23 11:05:24;;;;;;;8.90;2.13;;;29.10;99.90;;;;;;5061069;28;20579;-55
2022/08/23 11:07:58;;;;;;;7.68;2.42;;;29.00;98.80;;;;;;5059933;28;20039;-53
2022/08/23 11:10:45;;;;;;;5.72;2.67;;;28.00;99.90;;;;;;5060415;28;20131;-55
2022/08/23 11:13:14;;;;;;;8.57;2.92;;;29.40;99.60;;;;;;5058168;28;20312;-53
2022/08/23 11:15:46;;;;;;;4.72;2.28;;;29.30;99.90;;;;;;5068982;28;20351;-55
2022/08/23 11:18:47;;;;;;;8.20;2.60;;;29.40;98.40;;;;;;5045300;28;20290;-55
2022/08/23 11:21:16;;;;;;;;;;;29.30;97.00;;;;;;5061734;28;20454;-55
2022/08/23 11:23:48;;;;;;;8.20;2.50;;;29.40;97.60;;;;;;5066985;28;19924;-53
2022/08/23 11:26:26;;;;;;;6.50;2.00;;;29.70;98.30;;;;;;5059776;28;20052;-55
2022/08/23 11:29:21;;;;;;;6.20;1.98;;;29.70;96.70;;;;;;5058315;28;20044;-54
2022/08/23 11:31:50;;;;;;;6.47;2.33;;;29.60;96.50;;;;;;5058809;28;20112;-55
2022/08/23 11:34:18;;;;;;;8.88;2.28;;;29.70;96.80;;;;;;5060376;28;20048;-55
2022/08/23 11:37:19;;;;;;;6.07;1.90;;;29.50;95.90;;;;;;5065249;28;20472;-55
2022/08/23 11:40:04;;;;;;;10.87;2.30;;;29.80;96.30;;;;;;5067277;28;20047;-55
2022/08/23 11:42:39;;;;;;;7.45;2.50;;;29.80;96.60;;;;;;5065463;28;20130;-55
2022/08/23 11:45:40;;;;;;;6.10;2.38;;;29.80;97.50;;;;;;5065024;28;20568;-54
2022/08/23 11:48:24;;;;;;;8.80;2.03;;;29.80;95.20;;;;;;5060922;28;20483;-54
2022/08/23 11:50:50;;;;;;;7.07;1.90;;;29.90;96.10;;;;;;5059328;28;20052;-54
2022/08/23 11:53:35;;;;;;;9.15;2.30;;;29.70;97.30;;;;;;5065935;28;20051;-55
2022/08/23 11:56:06;;;;;;;6.65;2.10;;;30.20;96.20;;;;;;5060714;28;20066;-53
2022/08/23 11:58:53;;;;;;;5.85;1.85;;;29.90;95.40;;;;;;5063608;28;20684;-55
2022/08/23 12:01:30;;;;;;;7.60;2.38;;;29.80;95.70;;;;;;5064066;28;20304;-54
2022/08/23 12:04:27;;;;;;;8.60;2.10;;;29.70;96.50;;;;;;5064801;28;20051;-55
2022/08/23 12:07:00;;;;;;;6.20;1.77;;;29.60;95.80;;;;;;5063203;28;20072;-55
2022/08/23 12:09:26;;;;;;;5.72;2.25;;;29.70;96.50;;;;;;5062297;28;20055;-54
2022/08/23 12:11:54;;;;;;;7.25;1.98;;;29.80;96.30;;;;;;5065267;28;20037;-54
2022/08/23 12:14:32;;;;;;;7.85;1.80;;;30.10;95.90;;;;;;5068363;28;20054;-53
2022/08/23 12:17:11;;;;;;;6.90;2.10;;;30.30;96.30;;;;;;5059179;28;20040;-54
2022/08/23 12:19:45;;;;;;;8.98;2.17;;;29.90;94.70;;;;;;5059829;28;20075;-51
2022/08/23 12:22:14;;;;;;;7.43;2.15;;;30.50;95.80;;;;;;5066083;28;20044;-54
2022/08/23 12:24:49;;;;;;;9.32;2.40;;;30.40;94.40;;;;;;5058218;28;20076;-53
2022/08/23 12:27:31;;;;;;;7.80;2.08;;;30.40;94.10;;;;;;5063298;28;20122;-54
2022/08/23 12:30:32;;;;;;;6.78;2.45;;;30.30;93.70;;;;;;5058245;28;20256;-53
2022/08/23 12:33:31;;;;;;;5.07;1.60;;;30.00;94.10;;;;;;5025685;28;20137;-53
2022/08/23 12:36:32;;;;;;;11.13;2.10;;;30.50;94.00;;;;;;5063716;28;20238;-54
2022/08/23 12:39:07;;;;;;;6.90;2.00;;;30.60;93.50;;;;;;5064097;28;20853;-55
2022/08/23 12:42:10;;;;;;;8.20;2.15;;;30.50;93.20;;;;;;5059500;28;20052;-53
2022/08/23 12:44:35;;;;;;;5.90;2.20;;;30.40;93.00;;;;;;5034444;28;20053;-53
2022/08/23 12:47:16;;;;;;;9.90;2.78;;;30.30;93.70;;;;;;5039188;28;20041;-55
2022/08/23 12:49:54;;;;;;;6.72;2.00;;;30.40;93.30;;;;;;5039418;28;20113;-55
2022/08/23 12:52:24;;;;;;;7.22;2.40;;;30.20;94.30;;;;;;5038350;28;20410;-54
2022/08/23 12:54:53;;;;;;;4.68;1.73;;;30.00;94.40;;;;;;5036355;28;20044;-55
2022/08/23 12:57:38;;;;;;;8.00;2.38;;;29.60;94.00;;;;;;5023498;28;20061;-57
2022/08/23 13:00:13;;;;;;;11.50;3.08;;;29.90;94.40;;;;;;5041059;28;20086;-56
2022/08/23 13:02:41;;;;;;;7.22;1.90;;;29.80;94.20;;;;;;5016216;28;20059;-56
2022/08/23 13:05:25;;;;;;;5.07;2.00;;;29.70;94.00;;;;;;5016447;28;20065;-56
2022/08/23 13:07:50;;;;;;;7.85;2.22;;;29.80;93.10;;;;;;5044955;28;20103;-56
2022/08/23 13:10:16;;;;;;;6.97;2.45;;;29.60;94.00;;;;;;5047309;28;20052;-56
2022/08/23 13:12:42;;;;;;;8.07;2.60;;;29.40;94.40;;;;;;5036857;28;20059;-56
2022/08/23 13:15:08;;;;;;;8.43;2.70;;;29.30;94.10;;;;;;5023885;28;20042;-56